createdAt,value
2023-02-13T00:02:18.478Z,102479.50
2023-02-13T00:04:51.377Z,102482.88
2023-02-13T00:07:20.720Z,102472.38
2023-02-13T00:09:50.077Z,102481.19
2023-02-13T00:12:19.275Z,102469.50
2023-02-13T00:14:47.577Z,102464.94
2023-02-13T00:17:15.837Z,102472.88
2023-02-13T00:19:46.010Z,102472.59
2023-02-13T00:22:16.698Z,102475.50
2023-02-13T00:24:48.164Z,102469.88
2023-02-13T00:27:18.557Z,102467.94
2023-02-13T00:29:49.080Z,102475.00
2023-02-13T00:32:17.724Z,102475.38
2023-02-13T00:34:46.215Z,102469.88
2023-02-13T00:37:19.195Z,102457.91
2023-02-13T00:39:52.273Z,102466.88
2023-02-13T00:42:26.492Z,102472.44
2023-02-13T00:44:58.118Z,102469.16
2023-02-13T00:47:29.610Z,102465.69
2023-02-13T00:49:58.195Z,102464.53
2023-02-13T00:52:27.589Z,102469.75
2023-02-13T00:54:58.686Z,102471.03
2023-02-13T00:57:32.697Z,102461.84
2023-02-13T01:00:01.126Z,102469.59
2023-02-13T01:02:36.262Z,102402.44
2023-02-13T01:05:08.600Z,102460.63
2023-02-13T01:07:38.667Z,102459.75
2023-02-13T01:10:09.823Z,102466.81
2023-02-13T01:12:38.321Z,102458.28
2023-02-13T01:15:13.436Z,102450.00
2023-02-13T01:17:43.277Z,102456.13
2023-02-13T01:20:14.917Z,102463.91
2023-02-13T01:22:44.592Z,102464.97
2023-02-13T01:25:17.748Z,102456.06
2023-02-13T01:27:46.974Z,102453.03
2023-02-13T01:30:18.235Z,102455.28
2023-02-13T01:32:49.623Z,102465.34
2023-02-13T01:35:18.007Z,102445.16
2023-02-13T01:37:46.078Z,102456.44
2023-02-13T01:40:19.786Z,102460.94
2023-02-13T01:42:48.232Z,102444.22
2023-02-13T01:45:29.600Z,102459.44
2023-02-13T01:48:01.985Z,102459.13
2023-02-13T01:50:35.020Z,102457.59
2023-02-13T01:53:08.622Z,102457.84
2023-02-13T01:55:45.057Z,102425.03
2023-02-13T01:58:18.561Z,102439.19
2023-02-13T02:00:49.768Z,102441.75
2023-02-13T02:03:25.671Z,102414.97
2023-02-13T02:05:58.194Z,102434.69
2023-02-13T02:08:30.142Z,102444.66
2023-02-13T02:11:08.748Z,102445.19
2023-02-13T02:13:39.990Z,102446.97
2023-02-13T02:16:09.855Z,102444.22
2023-02-13T02:18:39.033Z,102446.22
2023-02-13T02:21:54.058Z,102438.28
2023-02-13T02:25:08.636Z,102443.28
2023-02-13T02:27:55.533Z,102438.28
2023-02-13T02:30:53.495Z,102434.78
2023-02-13T02:33:32.038Z,102432.13
2023-02-13T02:36:16.626Z,102426.16
2023-02-13T02:39:03.408Z,102431.19
2023-02-13T02:41:49.257Z,102427.81
2023-02-13T02:44:32.467Z,102432.09
2023-02-13T02:47:28.614Z,102436.19
2023-02-13T02:50:15.887Z,102436.19
2023-02-13T02:52:57.848Z,102433.09
2023-02-13T02:55:37.873Z,102452.88
2023-02-13T02:58:30.952Z,102439.81
2023-02-13T03:01:19.942Z,102435.97
2023-02-13T03:04:10.996Z,102446.34
2023-02-13T03:06:47.550Z,102452.88
2023-02-13T03:09:38.997Z,102455.88
2023-02-13T03:12:27.333Z,102451.47
2023-02-13T03:14:58.274Z,102458.28
2023-02-13T03:18:01.591Z,102454.84
2023-02-13T03:20:59.618Z,102415.81
2023-02-13T03:23:48.946Z,102434.44
2023-02-13T03:26:55.037Z,102445.22
2023-02-13T03:29:49.961Z,102443.06
2023-02-13T03:32:27.484Z,102449.16
2023-02-13T03:35:31.730Z,102451.53
2023-02-13T03:38:10.610Z,102456.72
2023-02-13T03:41:04.833Z,102432.47
2023-02-13T03:43:40.444Z,102455.44
2023-02-13T03:46:08.786Z,102453.19
2023-02-13T03:49:00.782Z,102451.31
2023-02-13T03:51:42.898Z,102461.44
2023-02-13T03:54:20.706Z,102454.03
2023-02-13T03:57:11.714Z,102467.50
2023-02-13T03:59:41.581Z,102468.19
2023-02-13T04:02:23.240Z,102469.91
2023-02-13T04:05:01.404Z,102460.22
2023-02-13T04:07:40.561Z,102461.22
2023-02-13T04:10:17.415Z,102463.56
2023-02-13T04:12:58.536Z,102459.19
2023-02-13T04:15:34.269Z,102463.50
2023-02-13T04:18:13.654Z,102449.53
2023-02-13T04:20:42.888Z,102461.41
2023-02-13T04:23:14.882Z,102459.81
2023-02-13T04:25:47.334Z,102455.31
2023-02-13T04:28:16.841Z,102458.59
2023-02-13T04:30:46.059Z,102467.91
2023-02-13T04:33:14.153Z,102459.50
2023-02-13T04:35:42.442Z,102466.78
2023-02-13T04:38:12.606Z,102460.69
2023-02-13T04:40:41.213Z,102459.63
2023-02-13T04:43:09.571Z,102454.75
2023-02-13T04:45:41.368Z,102444.03
2023-02-13T04:48:10.587Z,102462.81
2023-02-13T04:50:40.882Z,102458.13
2023-02-13T04:53:21.406Z,102458.38
2023-02-13T04:55:56.069Z,102458.91
2023-02-13T04:58:24.265Z,102456.13
2023-02-13T05:00:54.977Z,102445.38
2023-02-13T05:03:27.009Z,102451.16
2023-02-13T05:05:56.731Z,102456.09
2023-02-13T05:08:24.824Z,102457.31
2023-02-13T05:10:59.251Z,102451.78
2023-02-13T05:13:31.048Z,102462.44
2023-02-13T05:16:06.065Z,102460.28
2023-02-13T05:18:37.733Z,102463.94
2023-02-13T05:21:24.090Z,102458.78
2023-02-13T05:23:54.952Z,102457.97
2023-02-13T05:26:23.877Z,102466.88
2023-02-13T05:29:09.698Z,102467.13
2023-02-13T05:31:43.429Z,102467.13
2023-02-13T05:34:12.955Z,102467.72
2023-02-13T05:36:41.454Z,102456.41
2023-02-13T05:39:10.624Z,102451.88
2023-02-13T05:41:43.502Z,102460.94
2023-02-13T05:44:12.302Z,102457.78
2023-02-13T05:46:45.845Z,102455.22
2023-02-13T05:49:15.683Z,102464.75
2023-02-13T05:51:48.496Z,102456.94
2023-02-13T05:54:19.991Z,102453.16
2023-02-13T05:56:48.827Z,102470.13
2023-02-13T05:59:18.716Z,102463.28
2023-02-13T06:01:48.773Z,102470.25
2023-02-13T06:04:18.322Z,102480.03
2023-02-13T06:06:49.681Z,102469.16
2023-02-13T06:09:17.464Z,102467.72
2023-02-13T06:11:46.263Z,102474.94
2023-02-13T06:14:17.759Z,102473.94
2023-02-13T06:16:49.981Z,102458.69
2023-02-13T06:19:23.626Z,102471.50
2023-02-13T06:21:57.270Z,102473.94
2023-02-13T06:24:28.004Z,102467.47
2023-02-13T06:27:00.761Z,102473.19
2023-02-13T06:29:28.877Z,102475.03
2023-02-13T06:32:04.934Z,102465.63
2023-02-13T06:34:33.803Z,102456.47
2023-02-13T06:37:05.761Z,102461.56
2023-02-13T06:42:18.729Z,102474.50
2023-02-13T06:44:50.963Z,102469.41
2023-02-13T06:47:21.840Z,102469.88
2023-02-13T06:49:52.429Z,102477.47
2023-02-13T06:52:21.229Z,102477.59
2023-02-13T06:54:50.983Z,102471.09
2023-02-13T06:57:22.220Z,102478.94
2023-02-13T06:59:50.815Z,102478.22
2023-02-13T07:02:21.969Z,102458.28
2023-02-13T07:04:50.072Z,102483.31
2023-02-13T07:07:20.697Z,102482.47
2023-02-13T07:09:49.407Z,102461.72
2023-02-13T07:12:20.998Z,102492.25
2023-02-13T07:14:50.192Z,102493.34
2023-02-13T07:17:18.294Z,102495.41
2023-02-13T07:19:48.382Z,102493.84
2023-02-13T07:22:16.625Z,102493.47
2023-02-13T07:24:45.483Z,102488.97
2023-02-13T07:27:14.089Z,102483.84
2023-02-13T07:29:56.271Z,102495.81
2023-02-13T07:32:25.964Z,102495.19
2023-02-13T07:35:02.064Z,102486.22
2023-02-13T07:37:33.578Z,102482.66
2023-02-13T07:40:07.033Z,102492.66
2023-02-13T07:42:37.587Z,102498.16
2023-02-13T07:45:11.976Z,102501.06
2023-02-13T07:47:40.144Z,102497.16
2023-02-13T07:50:15.688Z,102497.41
2023-02-13T07:52:47.830Z,102500.56
2023-02-13T07:55:24.226Z,102494.09
2023-02-13T07:57:53.484Z,102500.34
2023-02-13T08:00:24.917Z,102499.28
2023-02-13T08:02:56.894Z,102504.25
2023-02-13T08:05:50.735Z,102509.59
2023-02-13T08:08:23.780Z,102503.19
2023-02-13T08:11:09.279Z,102503.31
2023-02-13T08:13:38.740Z,102503.22
2023-02-13T08:16:08.073Z,102490.28
2023-02-13T08:18:47.421Z,102506.19
2023-02-13T08:21:21.456Z,102507.81
2023-02-13T08:23:52.303Z,102487.66
2023-02-13T08:26:25.072Z,102514.88
2023-02-13T08:28:59.187Z,102514.53
2023-02-13T08:31:31.999Z,102519.25
2023-02-13T08:34:00.305Z,102518.69
2023-02-13T08:36:30.016Z,102504.25
2023-02-13T08:39:04.008Z,102507.50
2023-02-13T08:41:33.685Z,102513.81
2023-02-13T08:44:07.622Z,102509.16
2023-02-13T08:46:35.690Z,102515.88
2023-02-13T08:49:05.545Z,102483.94
2023-02-13T08:51:43.806Z,102513.75
2023-02-13T08:54:18.251Z,102513.84
2023-02-13T08:56:49.656Z,102511.25
2023-02-13T08:59:18.096Z,102515.88
2023-02-13T09:01:46.141Z,102521.72
2023-02-13T09:04:21.287Z,102503.00
2023-02-13T09:06:52.187Z,102517.41
2023-02-13T09:09:23.591Z,102517.84
2023-02-13T09:11:57.879Z,102509.75
2023-02-13T09:14:31.555Z,102521.94
2023-02-13T09:17:03.514Z,102518.56
2023-02-13T09:19:35.931Z,102506.09
2023-02-13T09:22:07.351Z,102509.81
2023-02-13T09:24:35.608Z,102507.41
2023-02-13T09:27:09.669Z,102498.19
2023-02-13T09:29:37.970Z,102499.34
2023-02-13T09:32:08.194Z,102510.00
2023-02-13T09:34:37.246Z,102505.03
2023-02-13T09:37:12.935Z,102497.94
2023-02-13T09:39:43.252Z,102494.94
2023-02-13T09:42:56.116Z,102502.88
2023-02-13T09:45:29.144Z,102501.06
2023-02-13T09:48:15.218Z,102495.50
2023-02-13T09:50:44.210Z,102431.16
2023-02-13T09:53:22.032Z,102496.63
2023-02-13T09:55:59.833Z,102475.00
2023-02-13T09:58:42.464Z,102489.78
2023-02-13T10:01:25.733Z,102489.91
2023-02-13T10:04:17.784Z,102496.53
2023-02-13T10:06:55.551Z,102486.84
2023-02-13T10:09:50.184Z,102487.34
2023-02-13T10:12:38.503Z,102493.19
2023-02-13T10:15:21.899Z,102490.94
2023-02-13T10:17:59.349Z,102492.56
2023-02-13T10:20:33.768Z,102489.19
2023-02-13T10:23:17.698Z,102496.28
2023-02-13T10:25:58.738Z,102501.16
2023-02-13T10:28:47.877Z,102498.22
2023-02-13T10:31:35.073Z,102494.94
2023-02-13T10:34:17.084Z,102484.19
2023-02-13T10:36:52.101Z,102450.94
2023-02-13T10:39:30.092Z,102487.84
2023-02-13T10:42:20.372Z,102477.72
2023-02-13T10:45:05.736Z,102477.94
2023-02-13T10:47:59.493Z,102476.56
2023-02-13T10:50:35.458Z,102477.69
2023-02-13T10:53:18.503Z,102465.81
2023-02-13T10:56:12.950Z,102460.75
2023-02-13T10:58:55.567Z,102461.81
2023-02-13T11:01:31.318Z,102457.81
2023-02-13T11:04:13.775Z,102457.88
2023-02-13T11:06:57.253Z,102456.41
2023-02-13T11:09:26.528Z,102449.25
2023-02-13T11:11:55.311Z,102449.44
2023-02-13T11:14:36.224Z,102437.28
2023-02-13T11:17:09.690Z,102442.09
2023-02-13T11:19:53.874Z,102425.38
2023-02-13T11:22:55.542Z,102429.13
2023-02-13T11:25:31.004Z,102431.41
2023-02-13T11:28:19.431Z,102427.69
2023-02-13T11:30:50.914Z,102412.25
2023-02-13T11:33:35.621Z,102418.66
2023-02-13T11:36:10.791Z,102417.69
2023-02-13T11:38:41.999Z,102409.53
2023-02-13T11:41:15.535Z,102411.09
2023-02-13T11:44:01.494Z,102408.00
2023-02-13T11:46:55.773Z,102405.97
2023-02-13T11:49:28.052Z,102392.91
2023-02-13T11:52:06.569Z,102403.63
2023-02-13T11:54:36.710Z,102401.41
2023-02-13T11:57:26.501Z,102395.94
2023-02-13T11:59:56.529Z,102392.38
2023-02-13T12:02:29.727Z,102386.94
2023-02-13T12:05:19.042Z,102375.38
2023-02-13T12:07:51.807Z,102375.88
2023-02-13T12:10:31.191Z,102386.19
2023-02-13T12:13:04.289Z,102387.59
2023-02-13T12:15:34.962Z,102384.78
2023-02-13T12:18:15.981Z,102385.94
2023-02-13T12:20:58.299Z,102382.50
2023-02-13T12:23:37.255Z,102378.59
2023-02-13T12:26:21.338Z,102378.97
2023-02-13T12:29:20.897Z,102376.09
2023-02-13T12:32:06.399Z,102382.78
2023-02-13T12:35:07.129Z,102368.88
2023-02-13T12:37:56.272Z,102373.84
2023-02-13T12:40:37.465Z,102368.91
2023-02-13T12:43:28.071Z,102355.81
2023-02-13T12:46:04.124Z,102356.63
2023-02-13T12:48:42.355Z,102357.06
2023-02-13T12:51:43.079Z,102337.03
2023-02-13T12:54:35.130Z,102331.38
2023-02-13T12:57:14.268Z,102342.22
2023-02-13T13:00:05.908Z,102339.94
2023-02-13T13:03:07.068Z,102341.38
2023-02-13T13:06:11.643Z,102321.38
2023-02-13T13:08:58.123Z,102330.44
2023-02-13T13:11:42.947Z,102337.03
2023-02-13T13:14:36.140Z,102312.78
2023-02-13T13:17:20.239Z,102303.34
2023-02-13T13:19:55.954Z,102328.56
2023-02-13T13:22:36.204Z,102326.75
2023-02-13T13:25:22.408Z,102322.19
2023-02-13T13:27:56.454Z,102322.47
2023-02-13T13:30:28.821Z,102325.91
2023-02-13T13:33:03.834Z,102315.63
2023-02-13T13:35:34.076Z,102322.53
2023-02-13T13:38:10.131Z,102319.34
2023-02-13T13:40:54.817Z,102308.72
2023-02-13T13:43:35.969Z,102263.44
2023-02-13T13:46:13.531Z,102304.69
2023-02-13T13:52:21.822Z,102298.13
2023-02-13T13:54:51.936Z,102275.91
2023-02-13T13:57:29.563Z,102283.63
2023-02-13T14:00:27.297Z,102294.91
2023-02-13T14:03:36.581Z,102299.25
2023-02-13T14:06:09.035Z,102291.06
2023-02-13T14:09:30.383Z,102286.56
2023-02-13T14:12:02.408Z,102270.72
2023-02-13T14:15:01.611Z,102289.06
2023-02-13T14:17:54.971Z,102289.47
2023-02-13T14:20:36.826Z,102284.66
2023-02-13T14:23:38.681Z,102288.25
2023-02-13T14:26:28.612Z,102292.75
2023-02-13T14:29:17.873Z,102286.66
2023-02-13T14:34:57.270Z,102286.63
2023-02-13T14:37:41.081Z,102260.78
2023-02-13T14:40:54.627Z,102276.84
2023-02-13T14:43:34.990Z,102271.50
2023-02-13T14:46:21.099Z,102278.00
2023-02-13T14:49:18.342Z,102267.44
2023-02-13T14:51:56.086Z,102270.28
2023-02-13T14:54:34.834Z,102233.88
2023-02-13T14:57:13.743Z,102267.91
2023-02-13T14:59:48.099Z,102270.38
2023-02-13T15:02:26.401Z,102268.41
2023-02-13T15:05:02.306Z,102256.66
2023-02-13T15:07:39.711Z,102256.72
2023-02-13T15:10:37.232Z,102259.19
2023-02-13T15:13:08.309Z,102253.75
2023-02-13T15:15:41.228Z,102231.16
2023-02-13T15:18:23.358Z,102259.38
2023-02-13T15:20:58.652Z,102250.28
2023-02-13T15:23:32.834Z,102247.72
2023-02-13T15:26:08.737Z,102254.47
2023-02-13T15:28:44.083Z,102249.81
2023-02-13T15:31:24.321Z,102246.41
2023-02-13T15:33:55.185Z,102251.91
2023-02-13T15:36:40.262Z,102247.16
2023-02-13T15:39:11.700Z,102240.56
2023-02-13T15:41:53.540Z,102247.22
2023-02-13T15:44:31.938Z,102191.94
2023-02-13T15:47:09.454Z,102250.84
2023-02-13T15:49:46.104Z,102243.88
2023-02-13T15:52:24.060Z,102245.91
2023-02-13T15:55:07.834Z,102240.09
2023-02-13T15:57:42.901Z,102222.97
2023-02-13T16:00:24.386Z,102234.16
2023-02-13T16:03:00.825Z,102233.16
2023-02-13T16:05:41.450Z,102215.59
2023-02-13T16:08:45.946Z,102247.22
2023-02-13T16:11:29.517Z,102248.63
2023-02-13T16:14:06.163Z,102256.25
2023-02-13T16:16:45.672Z,102256.44
2023-02-13T16:19:46.132Z,102253.78
2023-02-13T16:22:39.285Z,102239.97
2023-02-13T16:25:28.212Z,102256.38
2023-02-13T16:27:59.273Z,102261.84
2023-02-13T16:30:33.749Z,102251.63
2023-02-13T16:33:32.274Z,102264.81
2023-02-13T16:36:18.414Z,102264.63
2023-02-13T16:38:49.295Z,102258.91
2023-02-13T16:41:34.829Z,102264.84
2023-02-13T16:44:06.994Z,102243.16
2023-02-13T16:46:41.045Z,102269.16
2023-02-13T16:49:22.509Z,102277.31
2023-02-13T16:51:59.137Z,102280.53
2023-02-13T16:54:40.593Z,102263.94
2023-02-13T16:57:26.325Z,102286.13
2023-02-13T17:00:04.216Z,102293.41
2023-02-13T17:02:37.061Z,102292.56
2023-02-13T17:05:26.932Z,102301.22
2023-02-13T17:08:01.386Z,102273.50
2023-02-13T17:10:37.754Z,102298.91
2023-02-13T17:13:17.891Z,102302.63
2023-02-13T17:15:51.881Z,102299.91
2023-02-13T17:18:20.669Z,102292.75
2023-02-13T17:20:52.237Z,102294.75
2023-02-13T17:23:23.986Z,102283.16
2023-02-13T17:25:56.017Z,102314.06
2023-02-13T17:28:28.162Z,102313.03
2023-02-13T17:31:00.839Z,102312.53
2023-02-13T17:33:34.690Z,102320.94
2023-02-13T17:36:02.640Z,102311.03
2023-02-13T17:38:31.664Z,102269.56
2023-02-13T17:41:00.328Z,102315.94
2023-02-13T17:43:32.490Z,102278.34
2023-02-13T17:46:03.227Z,102328.88
2023-02-13T17:48:32.579Z,102310.09
2023-02-13T17:51:01.362Z,102326.63
2023-02-13T17:53:34.505Z,102325.03
2023-02-13T17:56:02.871Z,102311.28
2023-02-13T17:58:40.091Z,102323.56
2023-02-13T18:01:11.320Z,102324.78
2023-02-13T18:03:43.935Z,102328.66
2023-02-13T18:06:16.142Z,102330.91
2023-02-13T18:08:53.820Z,102334.94
2023-02-13T18:11:22.389Z,102328.13
2023-02-13T18:13:52.082Z,102312.47
2023-02-13T18:16:22.985Z,102334.97
2023-02-13T18:18:52.106Z,102321.25
2023-02-13T18:21:25.577Z,102308.06
2023-02-13T18:23:55.410Z,102303.09
2023-02-13T18:26:24.337Z,102340.13
2023-02-13T18:28:55.338Z,102329.94
2023-02-13T18:31:25.330Z,102328.06
2023-02-13T18:33:55.117Z,102311.03
2023-02-13T18:36:27.790Z,102327.72
2023-02-13T18:39:00.420Z,102297.78
2023-02-13T18:41:35.761Z,102313.06
2023-02-13T18:44:12.546Z,102340.19
2023-02-13T18:46:43.571Z,102295.31
2023-02-13T18:49:13.604Z,102330.47
2023-02-13T18:51:44.512Z,102302.94
2023-02-13T18:54:13.257Z,102336.97
2023-02-13T18:56:41.914Z,102341.47
2023-02-13T18:59:16.515Z,102340.97
2023-02-13T19:01:50.737Z,102323.94
2023-02-13T19:04:18.976Z,102321.78
2023-02-13T19:06:49.590Z,102333.97
2023-02-13T19:09:17.587Z,102322.94
2023-02-13T19:11:48.585Z,102342.41
2023-02-13T19:14:25.907Z,102331.66
2023-02-13T19:17:10.550Z,102332.03
2023-02-13T19:19:40.156Z,102291.44
2023-02-13T19:22:08.554Z,102326.34
2023-02-13T19:24:38.731Z,102328.34
2023-02-13T19:27:14.198Z,102332.31
2023-02-13T19:29:51.806Z,102341.13
2023-02-13T19:32:22.773Z,102344.06
2023-02-13T19:34:52.364Z,102342.81
2023-02-13T19:37:22.399Z,102346.50
2023-02-13T19:39:50.254Z,102352.50
2023-02-13T19:42:20.715Z,102340.72
2023-02-13T19:44:50.033Z,102341.81
2023-02-13T19:47:38.125Z,102359.00
2023-02-13T19:50:09.685Z,102355.47
2023-02-13T19:52:38.367Z,102361.38
2023-02-13T19:55:07.739Z,102359.69
2023-02-13T19:57:37.652Z,102342.25
2023-02-13T20:00:11.020Z,102328.34
2023-02-13T20:02:40.024Z,102321.25
2023-02-13T20:05:09.616Z,102348.06
2023-02-13T20:07:38.129Z,102321.09
2023-02-13T20:10:09.973Z,102276.75
2023-02-13T20:12:39.996Z,102327.53
2023-02-13T20:15:10.444Z,102338.63
2023-02-13T20:17:39.650Z,102316.97
2023-02-13T20:20:09.931Z,102342.69
2023-02-13T20:22:40.939Z,102355.59
2023-02-13T20:25:10.073Z,102359.44
2023-02-13T20:27:42.496Z,102345.81
2023-02-13T20:30:16.413Z,102354.53
2023-02-13T20:32:44.715Z,102367.59
2023-02-13T20:35:13.677Z,102369.28
2023-02-13T20:37:43.461Z,102368.69
2023-02-13T20:40:15.895Z,102327.66
2023-02-13T20:42:44.487Z,102365.03
2023-02-13T20:45:16.395Z,102370.53
2023-02-13T20:47:46.433Z,102363.25
2023-02-13T20:50:14.847Z,102363.88
2023-02-13T20:52:43.465Z,102345.56
2023-02-13T20:55:19.222Z,102354.31
2023-02-13T20:57:47.627Z,102337.41
2023-02-13T21:00:25.251Z,102352.44
2023-02-13T21:02:53.551Z,102328.97
2023-02-13T21:05:22.436Z,102346.16
2023-02-13T21:07:52.020Z,102320.63
2023-02-13T21:10:20.709Z,102333.69
2023-02-13T21:12:49.593Z,102338.06
2023-02-13T21:15:20.849Z,102350.69
2023-02-13T21:17:50.109Z,102341.13
2023-02-13T21:20:18.863Z,102352.38
2023-02-13T21:22:47.038Z,102348.25
2023-02-13T21:25:19.292Z,102345.81
2023-02-13T21:27:48.414Z,102345.38
2023-02-13T21:30:25.548Z,102343.00
2023-02-13T21:32:53.562Z,102340.56
2023-02-13T21:35:21.668Z,102340.13
2023-02-13T21:37:53.635Z,102342.28
2023-02-13T21:40:23.122Z,102345.44
2023-02-13T21:42:55.823Z,102344.22
2023-02-13T21:45:31.115Z,102345.31
2023-02-13T21:47:59.480Z,102344.97
2023-02-13T21:50:32.889Z,102299.31
2023-02-13T21:53:01.909Z,102348.31
2023-02-13T21:55:30.278Z,102336.03
2023-02-13T21:58:04.217Z,102280.16
2023-02-13T22:00:35.717Z,102324.91
2023-02-13T22:03:07.236Z,102326.94
2023-02-13T22:05:49.217Z,102336.72
2023-02-13T22:08:17.747Z,102330.34
2023-02-13T22:10:58.431Z,102322.09
2023-02-13T22:13:30.876Z,102319.19
2023-02-13T22:16:04.972Z,102304.75
2023-02-13T22:18:38.118Z,102327.41
2023-02-13T22:21:07.717Z,102326.56
2023-02-13T22:23:39.220Z,102325.53
2023-02-13T22:26:07.380Z,102328.34
2023-02-13T22:28:37.509Z,102334.59
2023-02-13T22:31:13.646Z,102331.44
2023-02-13T22:33:44.055Z,102337.38
2023-02-13T22:36:15.530Z,102341.81
2023-02-13T22:38:43.747Z,102324.78
2023-02-13T22:41:16.927Z,102331.91
2023-02-13T22:43:45.691Z,102330.56
2023-02-13T22:46:19.378Z,102319.13
2023-02-13T22:48:52.133Z,102273.69
2023-02-13T22:51:23.728Z,102318.28
2023-02-13T22:53:54.989Z,102330.63
2023-02-13T22:56:25.174Z,102335.03
2023-02-13T22:58:54.727Z,102334.16
2023-02-13T23:01:25.942Z,102333.09
2023-02-13T23:03:54.728Z,102336.63
2023-02-13T23:06:27.689Z,102328.19
2023-02-13T23:08:56.065Z,102333.44
2023-02-13T23:11:44.196Z,102326.16
2023-02-13T23:14:13.346Z,102326.75
2023-02-13T23:17:02.491Z,102338.13
2023-02-13T23:19:31.595Z,102325.88
2023-02-13T23:22:00.231Z,102328.06
2023-02-13T23:24:29.703Z,102330.06
2023-02-13T23:27:04.479Z,102319.31
2023-02-13T23:29:35.947Z,102331.03
2023-02-13T23:32:06.315Z,102318.22
2023-02-13T23:34:37.881Z,102329.31
2023-02-13T23:37:07.044Z,102304.19
2023-02-13T23:39:38.970Z,102326.63
2023-02-13T23:42:09.284Z,102336.78
2023-02-13T23:44:38.735Z,102340.22
2023-02-13T23:47:08.721Z,102337.13
2023-02-13T23:49:37.750Z,102322.03
2023-02-13T23:52:07.153Z,102327.25
2023-02-13T23:54:38.319Z,102339.09
2023-02-13T23:57:09.707Z,102346.91
2023-02-13T23:59:41.930Z,102339.56
